Torres, Brazil
Current Conditions -  °F | °C
As of 9:00 AM on Sunday 23 Nov 2014 (Local Time) from SBKG Reporting Station
Broken Clouds Broken Clouds  
Wind Chill: 79°   Ceiling: 2800
Heat Index: 81°   Visibility: 6mi
Dew Point: 66°   Wind: 12mph
Humidity: 65%   Direction: 90°E
Pressure: 30"   Gusts: NA
Location:  8.02°S, 36.07°W
Report Text: SBKG 231200Z 09010KT 050V120 9999 BKN028 26/19 Q1016
Loading
Personal Weather Stations






























Interactive Weather Map New forecast layout! Learn more

10-Day Weather Forecast

Advertisements
Track Severe Weather on mobile